createdAt,value
2023-03-17T00:00:45.798Z,37.92
2023-03-17T00:03:21.474Z,32.65
2023-03-17T00:05:51.359Z,28.55
2023-03-17T00:08:24.029Z,32.30
2023-03-17T00:10:53.948Z,31.17
2023-03-17T00:13:24.402Z,32.08
2023-03-17T00:15:56.557Z,27.77
2023-03-17T00:18:27.666Z,26.35
2023-03-17T00:20:56.807Z,32.40
2023-03-17T00:23:26.868Z,33.55
2023-03-17T00:25:57.670Z,39.58
2023-03-17T00:28:29.057Z,46.95
2023-03-17T00:31:01.352Z,50.80
2023-03-17T00:33:35.119Z,52.75
2023-03-17T00:36:04.370Z,85.25
2023-03-17T00:38:33.538Z,73.30
2023-03-17T00:41:03.678Z,129.88
2023-03-17T00:43:33.004Z,116.75
2023-03-17T00:46:02.183Z,130.02
2023-03-17T00:48:32.924Z,163.52
2023-03-17T00:51:02.224Z,182.90
2023-03-17T00:53:31.368Z,90.05
2023-03-17T00:56:00.586Z,33.00
2023-03-17T00:58:33.042Z,29.10
2023-03-17T01:01:02.952Z,25.10
2023-03-17T01:03:34.818Z,20.73
2023-03-17T01:06:05.878Z,24.23
2023-03-17T01:08:35.421Z,21.80
2023-03-17T01:11:04.815Z,32.88
2023-03-17T01:13:34.655Z,29.23
2023-03-17T01:16:03.801Z,50.10
2023-03-17T01:18:34.799Z,43.17
2023-03-17T01:21:04.346Z,40.65
2023-03-17T01:23:33.662Z,37.22
2023-03-17T01:26:02.897Z,38.17
2023-03-17T01:28:32.199Z,44.80
2023-03-17T01:31:03.233Z,44.00
2023-03-17T01:33:32.444Z,37.47
2023-03-17T01:36:03.231Z,44.90
2023-03-17T01:38:32.962Z,51.25
2023-03-17T01:41:03.815Z,44.30
2023-03-17T01:43:33.177Z,54.38
2023-03-17T01:46:21.194Z,56.60
2023-03-17T01:48:57.685Z,57.25
2023-03-17T01:51:34.368Z,52.42
2023-03-17T01:54:08.749Z,54.38
2023-03-17T01:56:41.298Z,44.92
2023-03-17T01:59:15.052Z,37.78
2023-03-17T02:01:47.892Z,45.35
2023-03-17T02:04:18.039Z,37.28
2023-03-17T02:06:58.867Z,40.55
2023-03-17T02:09:30.312Z,51.88
2023-03-17T02:12:02.302Z,45.75
2023-03-17T02:14:32.023Z,38.17
2023-03-17T02:17:05.483Z,29.42
2023-03-17T02:19:34.690Z,22.35
2023-03-17T02:22:05.775Z,30.77
2023-03-17T02:24:39.319Z,27.65
2023-03-17T02:27:13.538Z,29.33
2023-03-17T02:29:42.934Z,29.25
2023-03-17T02:32:12.422Z,18.88
2023-03-17T02:34:42.659Z,18.50
2023-03-17T02:37:13.498Z,26.20
2023-03-17T02:39:42.981Z,32.75
2023-03-17T02:42:13.103Z,39.85
2023-03-17T02:44:42.287Z,42.38
2023-03-17T02:47:11.857Z,32.22
2023-03-17T02:49:42.501Z,34.30
2023-03-17T02:52:13.694Z,28.05
2023-03-17T02:54:43.164Z,27.10
2023-03-17T02:57:12.388Z,20.02
2023-03-17T02:59:41.945Z,21.77
2023-03-17T03:02:11.928Z,25.63
2023-03-17T03:04:41.101Z,31.45
2023-03-17T03:07:10.432Z,22.92
2023-03-17T03:09:42.473Z,24.27
2023-03-17T03:12:11.868Z,19.13
2023-03-17T03:14:41.263Z,25.10
2023-03-17T03:17:11.073Z,23.13
2023-03-17T03:19:40.432Z,19.80
2023-03-17T03:22:10.004Z,16.02
2023-03-17T03:24:42.185Z,22.27
2023-03-17T03:27:11.365Z,20.73
2023-03-17T03:29:40.615Z,18.90
2023-03-17T03:32:10.050Z,20.83
2023-03-17T03:34:39.224Z,14.50
2023-03-17T03:37:08.589Z,13.27
2023-03-17T03:39:38.191Z,27.92
2023-03-17T03:42:09.363Z,20.15
2023-03-17T03:44:38.592Z,21.88
2023-03-17T03:47:08.074Z,23.13
2023-03-17T03:49:37.173Z,16.25
2023-03-17T03:52:07.090Z,17.35
2023-03-17T03:54:43.768Z,26.50
2023-03-17T03:57:14.502Z,17.13
2023-03-17T03:59:43.677Z,30.90
2023-03-17T04:02:13.092Z,20.70
2023-03-17T04:04:42.586Z,22.58
2023-03-17T04:07:11.952Z,21.73
2023-03-17T04:09:41.217Z,28.30
2023-03-17T04:12:11.702Z,22.50
2023-03-17T04:14:42.820Z,22.52
2023-03-17T04:17:13.245Z,16.13
2023-03-17T04:19:53.099Z,19.30
2023-03-17T04:22:22.598Z,19.83
2023-03-17T04:24:51.846Z,20.55
2023-03-17T04:27:21.031Z,28.60
2023-03-17T04:29:51.687Z,21.67
2023-03-17T04:32:20.810Z,23.80
2023-03-17T04:34:50.053Z,20.27
2023-03-17T04:37:19.189Z,24.10
2023-03-17T04:39:48.263Z,29.05
2023-03-17T04:42:17.387Z,32.08
2023-03-17T04:44:46.638Z,25.67
2023-03-17T04:47:17.258Z,21.35
2023-03-17T04:49:46.567Z,29.60
2023-03-17T04:52:15.693Z,32.63
2023-03-17T04:54:44.782Z,25.73
2023-03-17T04:57:14.136Z,26.45
2023-03-17T04:59:43.270Z,31.85
2023-03-17T05:02:12.785Z,27.15
2023-03-17T05:04:45.620Z,28.08
2023-03-17T05:07:18.126Z,32.15
2023-03-17T05:09:47.832Z,30.30
2023-03-17T05:12:17.496Z,28.10
2023-03-17T05:14:47.051Z,32.90
2023-03-17T05:17:16.187Z,25.38
2023-03-17T05:19:47.384Z,20.08
2023-03-17T05:22:16.754Z,18.92
2023-03-17T05:24:46.117Z,19.25
2023-03-17T05:27:15.348Z,20.42
2023-03-17T05:29:44.487Z,21.63
2023-03-17T05:32:14.378Z,13.35
2023-03-17T05:34:43.638Z,16.92
2023-03-17T05:37:14.631Z,11.38
2023-03-17T05:39:44.124Z,19.55
2023-03-17T05:42:13.306Z,20.77
2023-03-17T05:44:42.586Z,19.05
2023-03-17T05:47:13.152Z,16.52
2023-03-17T05:49:42.383Z,19.13
2023-03-17T05:52:13.058Z,16.17
2023-03-17T05:54:42.461Z,14.40
2023-03-17T05:57:11.617Z,27.23
2023-03-17T05:59:40.800Z,15.02
2023-03-17T06:02:10.189Z,17.02
2023-03-17T06:04:39.473Z,14.27
2023-03-17T06:07:09.951Z,17.17
2023-03-17T06:09:40.577Z,17.92
2023-03-17T06:12:10.540Z,10.98
2023-03-17T06:14:39.655Z,12.10
2023-03-17T06:17:09.072Z,13.10
2023-03-17T06:19:38.209Z,13.05
2023-03-17T06:22:07.583Z,38.72
2023-03-17T06:24:36.982Z,13.45
2023-03-17T06:27:07.806Z,11.75
2023-03-17T06:29:36.954Z,11.35
2023-03-17T06:32:19.318Z,12.15
2023-03-17T06:34:49.937Z,13.98
2023-03-17T06:37:19.766Z,11.00
2023-03-17T06:39:50.232Z,12.45
2023-03-17T06:42:21.021Z,10.85
2023-03-17T06:44:53.240Z,17.80
2023-03-17T06:47:24.700Z,11.20
2023-03-17T06:49:55.154Z,9.07
2023-03-17T06:52:24.261Z,12.75
2023-03-17T06:54:59.574Z,10.00
2023-03-17T06:57:30.528Z,17.15
2023-03-17T06:59:59.716Z,20.10
2023-03-17T07:02:28.949Z,10.02
2023-03-17T07:04:59.608Z,14.70
2023-03-17T07:07:32.044Z,17.88
2023-03-17T07:10:04.279Z,13.20
2023-03-17T07:12:35.274Z,18.10
2023-03-17T07:15:04.480Z,22.95
2023-03-17T07:17:34.093Z,23.48
2023-03-17T07:20:03.204Z,18.67
2023-03-17T07:22:35.806Z,18.38
2023-03-17T07:25:05.328Z,15.60
2023-03-17T07:27:36.257Z,13.73
2023-03-17T07:30:07.004Z,13.52
2023-03-17T07:32:36.762Z,12.45
2023-03-17T07:35:06.619Z,9.85
2023-03-17T07:37:35.827Z,7.57
2023-03-17T07:40:05.383Z,14.25
2023-03-17T07:42:36.329Z,11.82
2023-03-17T07:45:06.582Z,31.63
2023-03-17T07:47:35.791Z,24.33
2023-03-17T07:50:07.236Z,16.27
2023-03-17T07:52:36.668Z,17.98
2023-03-17T07:55:11.790Z,16.77
2023-03-17T07:57:42.996Z,18.80
2023-03-17T08:00:14.124Z,22.73
2023-03-17T08:06:04.821Z,23.70
2023-03-17T08:08:34.607Z,18.50
2023-03-17T08:11:07.093Z,24.25
2023-03-17T08:13:38.116Z,20.67
2023-03-17T08:16:08.663Z,18.42
2023-03-17T08:18:38.704Z,21.02
2023-03-17T08:21:15.841Z,19.02
2023-03-17T08:23:46.223Z,22.48
2023-03-17T08:26:16.440Z,24.75
2023-03-17T08:28:47.486Z,27.30
2023-03-17T08:31:18.594Z,20.77
2023-03-17T08:33:49.616Z,16.45
2023-03-17T08:36:19.658Z,21.17
2023-03-17T08:38:50.453Z,19.95
2023-03-17T08:41:21.969Z,24.13
2023-03-17T08:43:53.546Z,24.55
2023-03-17T08:46:25.216Z,17.45
2023-03-17T08:48:58.172Z,15.15
2023-03-17T08:51:31.059Z,21.23
2023-03-17T08:54:30.188Z,17.95
2023-03-17T08:57:02.531Z,17.00
2023-03-17T08:59:37.468Z,14.13
2023-03-17T09:02:10.397Z,15.35
2023-03-17T09:04:41.680Z,13.77
2023-03-17T09:07:12.204Z,15.57
2023-03-17T09:09:41.865Z,21.33
2023-03-17T09:12:13.932Z,23.83
2023-03-17T09:14:47.416Z,17.67
2023-03-17T09:17:19.884Z,18.63
2023-03-17T09:19:50.383Z,18.40
2023-03-17T09:22:22.059Z,16.95
2023-03-17T09:24:51.744Z,16.80
2023-03-17T09:27:21.049Z,21.92
2023-03-17T09:29:51.675Z,16.88
2023-03-17T09:32:20.973Z,16.98
2023-03-17T09:34:53.106Z,14.32
2023-03-17T09:37:23.913Z,19.70
2023-03-17T09:39:53.309Z,16.90
2023-03-17T09:42:44.234Z,16.08
2023-03-17T09:45:29.621Z,18.58
2023-03-17T09:48:33.848Z,16.35
2023-03-17T09:51:07.177Z,16.33
2023-03-17T09:53:38.468Z,12.85
2023-03-17T09:56:14.155Z,16.38
2023-03-17T09:58:51.153Z,15.00
2023-03-17T10:01:24.858Z,11.57
2023-03-17T10:03:54.988Z,9.05
2023-03-17T10:06:35.233Z,18.02
2023-03-17T10:09:14.936Z,13.90
2023-03-17T10:11:49.088Z,9.35
2023-03-17T10:14:35.474Z,17.27
2023-03-17T10:17:15.938Z,18.88
2023-03-17T10:19:49.288Z,18.08
2023-03-17T10:22:25.684Z,21.98
2023-03-17T10:25:01.700Z,23.17
2023-03-17T10:27:36.669Z,21.00
2023-03-17T10:30:06.606Z,17.90
2023-03-17T10:32:41.495Z,14.70
2023-03-17T10:35:13.205Z,21.90
2023-03-17T10:37:43.918Z,24.75
2023-03-17T10:40:23.919Z,25.92
2023-03-17T10:42:57.527Z,24.35
2023-03-17T10:45:30.518Z,21.85
2023-03-17T10:48:03.103Z,22.35
2023-03-17T10:50:35.968Z,21.42
2023-03-17T10:53:09.983Z,17.15
2023-03-17T10:55:45.163Z,20.05
2023-03-17T10:58:19.061Z,19.23
2023-03-17T11:00:58.504Z,19.30
2023-03-17T11:03:34.252Z,23.23
2023-03-17T11:06:05.680Z,20.40
2023-03-17T11:08:37.087Z,16.58
2023-03-17T11:11:09.259Z,19.15
2023-03-17T11:13:38.951Z,26.02
2023-03-17T11:16:19.575Z,23.27
2023-03-17T11:18:54.086Z,21.92
2023-03-17T11:21:27.790Z,22.15
2023-03-17T11:24:06.320Z,23.65
2023-03-17T11:27:01.018Z,25.08
2023-03-17T11:29:46.915Z,22.25
2023-03-17T11:32:29.819Z,18.15
2023-03-17T11:35:18.475Z,19.80
2023-03-17T11:38:09.547Z,21.35
2023-03-17T11:40:49.446Z,24.75
2023-03-17T11:43:29.841Z,26.88
2023-03-17T11:46:06.447Z,25.13
2023-03-17T11:48:47.852Z,29.13
2023-03-17T11:51:30.894Z,23.13
2023-03-17T11:54:10.013Z,26.38
2023-03-17T11:56:47.257Z,35.88
2023-03-17T11:59:26.641Z,26.27
2023-03-17T12:02:03.203Z,28.98
2023-03-17T12:04:36.766Z,28.00
2023-03-17T12:07:21.167Z,32.97
2023-03-17T12:10:00.460Z,45.13
2023-03-17T12:12:35.907Z,37.75
2023-03-17T12:15:07.712Z,43.72
2023-03-17T12:17:41.101Z,26.33
2023-03-17T12:20:18.752Z,32.60
2023-03-17T12:22:57.126Z,33.15
2023-03-17T12:25:33.108Z,27.13
2023-03-17T12:30:41.529Z,21.13
2023-03-17T12:33:21.774Z,24.50
2023-03-17T12:35:51.048Z,26.52
2023-03-17T12:38:27.601Z,34.63
2023-03-17T12:41:16.384Z,35.22
2023-03-17T12:43:58.182Z,34.10
2023-03-17T12:46:45.480Z,32.55
2023-03-17T12:49:50.421Z,31.23
2023-03-17T12:52:39.125Z,18.58
2023-03-17T12:55:15.511Z,21.20
2023-03-17T12:57:47.348Z,27.65
2023-03-17T13:00:27.508Z,23.50
2023-03-17T13:03:15.174Z,27.80
2023-03-17T13:05:49.313Z,26.00
2023-03-17T13:08:25.997Z,25.00
2023-03-17T13:11:18.331Z,24.77
2023-03-17T13:13:59.758Z,32.65
2023-03-17T13:16:32.549Z,25.77
2023-03-17T13:19:21.337Z,30.25
2023-03-17T13:22:15.578Z,27.85
2023-03-17T13:24:49.674Z,25.13
2023-03-17T13:27:46.595Z,23.02
2023-03-17T13:30:46.371Z,26.55
2023-03-17T13:33:25.128Z,30.95
2023-03-17T13:36:11.447Z,31.85
2023-03-17T13:39:17.800Z,35.65
2023-03-17T13:42:17.787Z,41.50
2023-03-17T13:45:17.917Z,39.42
2023-03-17T13:47:47.777Z,43.47
2023-03-17T13:50:23.176Z,41.63
2023-03-17T13:52:57.331Z,39.83
2023-03-17T13:55:41.702Z,30.77
2023-03-17T13:58:35.940Z,36.40
2023-03-17T14:01:12.431Z,33.47
2023-03-17T14:03:49.262Z,36.42
2023-03-17T14:06:21.523Z,38.63
2023-03-17T14:08:54.514Z,33.22
2023-03-17T14:11:30.985Z,35.03
2023-03-17T14:14:31.230Z,38.83
2023-03-17T14:17:11.191Z,27.90
2023-03-17T14:19:43.598Z,35.38
2023-03-17T14:22:24.803Z,36.20
2023-03-17T14:24:55.420Z,32.63
2023-03-17T14:27:26.359Z,28.10
2023-03-17T14:29:55.572Z,28.20
2023-03-17T14:32:27.178Z,28.40
2023-03-17T14:34:58.959Z,24.80
2023-03-17T14:37:29.944Z,18.27
2023-03-17T14:40:00.704Z,18.00
2023-03-17T14:42:31.624Z,20.58
2023-03-17T14:45:05.639Z,15.30
2023-03-17T14:47:40.902Z,24.35
2023-03-17T14:50:18.404Z,22.00
2023-03-17T14:52:47.706Z,24.80
2023-03-17T14:55:20.107Z,19.65
2023-03-17T14:57:54.626Z,23.77
2023-03-17T15:00:36.828Z,27.30
2023-03-17T15:03:20.347Z,29.05
2023-03-17T15:05:50.501Z,34.50
2023-03-17T15:08:43.193Z,33.05
2023-03-17T15:11:20.240Z,39.72
2023-03-17T15:13:50.521Z,27.65
2023-03-17T15:16:24.057Z,26.65
2023-03-17T15:19:06.839Z,31.92
2023-03-17T15:21:39.985Z,34.97
2023-03-17T15:24:25.298Z,33.25
2023-03-17T15:27:02.093Z,21.70
2023-03-17T15:29:31.404Z,31.90
2023-03-17T15:32:12.910Z,28.35
2023-03-17T15:34:43.710Z,23.92
2023-03-17T15:37:23.571Z,33.42
2023-03-17T15:39:53.379Z,27.38
2023-03-17T15:42:24.940Z,33.97
2023-03-17T15:44:54.661Z,40.20
2023-03-17T15:47:25.546Z,38.88
2023-03-17T15:50:00.310Z,52.17
2023-03-17T15:52:30.746Z,50.05
2023-03-17T15:55:03.572Z,47.42
2023-03-17T15:57:33.729Z,43.50
2023-03-17T16:00:03.065Z,40.45
2023-03-17T16:02:34.790Z,40.83
2023-03-17T16:05:17.555Z,26.45
2023-03-17T16:07:46.801Z,37.15
2023-03-17T16:10:21.482Z,41.42
2023-03-17T16:12:51.628Z,44.78
2023-03-17T16:15:23.748Z,41.92
2023-03-17T16:17:55.709Z,50.97
2023-03-17T16:20:28.976Z,51.92
2023-03-17T16:22:59.614Z,39.42
2023-03-17T16:25:30.794Z,36.13
2023-03-17T16:28:01.336Z,52.92
2023-03-17T16:30:32.538Z,43.13
2023-03-17T16:33:04.624Z,31.88
2023-03-17T16:35:36.321Z,47.70
2023-03-17T16:38:05.633Z,39.92
2023-03-17T16:40:37.613Z,38.63
2023-03-17T16:43:19.117Z,36.90
2023-03-17T16:45:55.364Z,37.28
2023-03-17T16:48:24.927Z,36.75
2023-03-17T16:50:56.107Z,31.23
2023-03-17T16:53:29.608Z,29.63
2023-03-17T16:55:58.871Z,29.65
2023-03-17T16:58:30.712Z,34.15
2023-03-17T17:01:02.976Z,30.25
2023-03-17T17:03:32.693Z,31.67
2023-03-17T17:06:03.305Z,31.73
2023-03-17T17:08:32.447Z,29.98
2023-03-17T17:11:01.517Z,30.05
2023-03-17T17:13:30.845Z,29.67
2023-03-17T17:16:00.113Z,31.33
2023-03-17T17:18:29.492Z,41.13
2023-03-17T17:20:58.664Z,45.88
2023-03-17T17:23:30.037Z,41.75
2023-03-17T17:25:59.161Z,44.58
2023-03-17T17:28:28.228Z,41.67
2023-03-17T17:30:58.980Z,48.22
2023-03-17T17:33:28.181Z,42.58
2023-03-17T17:35:57.373Z,55.22
2023-03-17T17:38:29.682Z,97.55
2023-03-17T17:41:03.584Z,45.15
2023-03-17T17:43:33.021Z,43.75
2023-03-17T17:46:02.328Z,43.97
2023-03-17T17:48:31.463Z,83.40
2023-03-17T17:51:00.658Z,29.50
2023-03-17T17:53:31.322Z,34.13
2023-03-17T17:56:00.431Z,37.88
2023-03-17T17:58:29.634Z,33.00
2023-03-17T18:00:59.316Z,31.30
2023-03-17T18:03:31.554Z,29.08
2023-03-17T18:06:01.688Z,20.25
2023-03-17T18:08:32.300Z,20.50
2023-03-17T18:11:01.491Z,17.42
2023-03-17T18:13:30.688Z,17.23
2023-03-17T18:16:00.347Z,17.27
2023-03-17T18:18:29.589Z,19.70
2023-03-17T18:20:59.474Z,21.70
2023-03-17T18:23:28.818Z,20.80
2023-03-17T18:26:03.178Z,21.02
2023-03-17T18:28:32.545Z,25.83
2023-03-17T18:31:07.060Z,27.52
2023-03-17T18:33:36.387Z,76.63
2023-03-17T18:36:07.497Z,21.08
2023-03-17T18:38:37.040Z,32.75
2023-03-17T18:41:11.558Z,99.43
2023-03-17T18:43:41.436Z,47.17
2023-03-17T18:46:10.622Z,118.13
2023-03-17T18:48:40.014Z,143.13
2023-03-17T18:51:09.123Z,164.77
2023-03-17T18:53:39.569Z,160.98
2023-03-17T18:56:11.283Z,191.40
2023-03-17T18:58:40.397Z,199.40
2023-03-17T19:01:09.608Z,235.93
2023-03-17T19:03:38.847Z,250.80
2023-03-17T19:06:13.451Z,232.80
2023-03-17T19:08:43.275Z,247.90
2023-03-17T19:11:15.693Z,240.65
2023-03-17T19:13:45.869Z,267.15
2023-03-17T19:16:15.851Z,246.75
2023-03-17T19:18:44.966Z,230.27
2023-03-17T19:21:14.794Z,259.52
2023-03-17T19:23:44.102Z,270.05
2023-03-17T19:26:14.797Z,271.88
2023-03-17T19:28:44.072Z,274.00
2023-03-17T19:31:13.603Z,230.27
2023-03-17T19:33:42.876Z,209.20
2023-03-17T19:36:14.518Z,190.50
2023-03-17T19:38:43.722Z,189.40
2023-03-17T19:41:15.799Z,158.70
2023-03-17T19:43:45.235Z,177.05
2023-03-17T19:46:14.598Z,168.80
2023-03-17T19:48:43.878Z,166.00
2023-03-17T19:51:13.221Z,159.13
2023-03-17T19:53:42.418Z,162.23
2023-03-17T19:56:11.553Z,159.63
2023-03-17T19:58:43.385Z,163.30
2023-03-17T20:01:13.369Z,157.02
2023-03-17T20:03:43.100Z,179.75
2023-03-17T20:06:12.304Z,168.93
2023-03-17T20:08:41.869Z,177.75
2023-03-17T20:11:11.929Z,181.75
2023-03-17T20:13:42.826Z,164.23
2023-03-17T20:16:14.917Z,180.13
2023-03-17T20:18:44.096Z,179.23
2023-03-17T20:21:14.873Z,175.10
2023-03-17T20:23:45.236Z,172.15
2023-03-17T20:26:14.640Z,164.80
2023-03-17T20:28:45.394Z,166.32
2023-03-17T20:31:14.811Z,165.48
2023-03-17T20:33:43.974Z,145.38
2023-03-17T20:36:14.398Z,154.15
2023-03-17T20:38:44.269Z,159.40
2023-03-17T20:41:15.451Z,158.27
2023-03-17T20:43:46.468Z,150.80
2023-03-17T20:46:19.444Z,140.18
2023-03-17T20:48:49.357Z,137.45
2023-03-17T20:51:19.163Z,138.25
2023-03-17T20:54:31.522Z,140.70
2023-03-17T20:57:01.820Z,191.45
2023-03-17T20:59:34.090Z,199.13
2023-03-17T21:02:05.298Z,243.13
2023-03-17T21:04:34.520Z,199.50
2023-03-17T21:07:03.757Z,183.10
2023-03-17T21:09:33.023Z,161.02
2023-03-17T21:12:02.188Z,122.18
2023-03-17T21:14:33.043Z,125.80
2023-03-17T21:17:03.035Z,116.00
2023-03-17T21:26:30.344Z,148.75
2023-03-17T21:28:59.524Z,132.05
2023-03-17T21:31:30.304Z,116.35
2023-03-17T21:33:59.579Z,111.95
2023-03-17T21:36:29.176Z,110.95
2023-03-17T21:38:58.421Z,116.80
2023-03-17T21:41:33.729Z,109.63
2023-03-17T21:44:03.830Z,106.07
2023-03-17T21:46:34.732Z,116.40
2023-03-17T21:49:04.141Z,94.82
2023-03-17T21:51:33.896Z,99.93
2023-03-17T21:54:04.403Z,102.40
2023-03-17T21:56:33.897Z,103.85
2023-03-17T21:59:03.511Z,95.38
2023-03-17T22:01:35.095Z,99.53
2023-03-17T22:04:04.256Z,101.65
2023-03-17T22:06:33.583Z,110.80
2023-03-17T22:09:03.270Z,112.30
2023-03-17T22:11:32.916Z,103.85
2023-03-17T22:14:02.286Z,109.40
2023-03-17T22:16:34.708Z,106.75
2023-03-17T22:19:04.264Z,112.63
2023-03-17T22:21:34.283Z,99.90
2023-03-17T22:24:03.558Z,96.30
2023-03-17T22:26:32.964Z,108.72
2023-03-17T22:29:02.347Z,102.10
2023-03-17T22:31:32.082Z,100.55
2023-03-17T22:34:03.111Z,114.45
2023-03-17T22:36:32.793Z,111.72
2023-03-17T22:39:02.311Z,93.85
2023-03-17T22:41:32.410Z,130.57
2023-03-17T22:44:01.611Z,147.48
2023-03-17T22:46:30.854Z,125.20
2023-03-17T22:49:00.201Z,120.88
2023-03-17T22:51:32.223Z,123.18
2023-03-17T22:54:01.500Z,139.80
2023-03-17T22:56:31.255Z,154.07
2023-03-17T22:59:17.350Z,149.85
2023-03-17T23:01:52.106Z,140.68
2023-03-17T23:04:21.357Z,120.70
2023-03-17T23:06:52.872Z,114.35
2023-03-17T23:09:22.531Z,93.53
2023-03-17T23:11:51.785Z,85.63
2023-03-17T23:14:21.112Z,90.15
2023-03-17T23:16:50.425Z,87.50
2023-03-17T23:19:19.614Z,92.40
2023-03-17T23:21:48.870Z,84.40
2023-03-17T23:24:19.615Z,82.85
2023-03-17T23:26:49.023Z,92.25
2023-03-17T23:29:18.176Z,89.40
2023-03-17T23:31:47.467Z,99.90
2023-03-17T23:34:16.660Z,106.20
2023-03-17T23:36:45.966Z,120.40
2023-03-17T23:39:15.435Z,116.97
2023-03-17T23:41:46.225Z,140.13
2023-03-17T23:44:15.492Z,163.15
2023-03-17T23:46:45.617Z,153.93
2023-03-17T23:49:14.908Z,167.98
2023-03-17T23:51:44.387Z,154.35
2023-03-17T23:54:14.770Z,142.90
2023-03-17T23:56:45.574Z,138.82
2023-03-17T23:59:14.833Z,112.43
